Time;durP1;ratioP1;P1;durP2;ratioP2;P2;SDS_P1;SDS_P2;PMS_P1;PMS_P2;Temp;Humidity;BMP_temperature;BMP_pressure;BME280_temperature;BME280_humidity;BME280_pressure;Samples;Min_cycle;Max_cycle;Signal;HPM_P1;HPM_P2
2022/01/19 00:00:47;;;;;;;0.67;0.50;;;2.10;99.90;;;;;;5012159;28;20172;-73
2022/01/19 00:03:13;;;;;;;0.87;0.87;;;2.10;99.90;;;;;;5012638;28;20435;-75
2022/01/19 00:05:39;;;;;;;1.23;1.13;;;2.10;99.90;;;;;;5010092;28;20450;-75
2022/01/19 00:08:04;;;;;;;0.70;0.70;;;2.00;99.90;;;;;;5012450;28;20215;-74
2022/01/19 00:10:30;;;;;;;0.67;0.60;;;2.00;99.90;;;;;;5011832;28;21139;-74
2022/01/19 00:12:58;;;;;;;0.90;0.90;;;2.00;99.90;;;;;;5012256;28;20180;-74
2022/01/19 00:15:25;;;;;;;0.70;0.70;;;2.10;99.90;;;;;;5012494;28;20431;-73
2022/01/19 00:17:54;;;;;;;1.27;1.17;;;2.20;99.90;;;;;;5012124;28;20967;-74
2022/01/19 00:20:21;;;;;;;0.63;0.50;;;2.20;99.90;;;;;;5011800;28;20435;-74
2022/01/19 00:22:46;;;;;;;0.60;0.60;;;2.20;99.90;;;;;;5012037;28;20443;-74
2022/01/19 00:25:12;;;;;;;0.80;0.80;;;2.30;99.90;;;;;;5012119;28;20931;-74
2022/01/19 00:27:38;;;;;;;0.60;0.50;;;2.40;99.90;;;;;;5010484;28;20213;-73
2022/01/19 00:30:04;;;;;;;0.67;0.60;;;2.40;99.90;;;;;;5015053;28;20198;-73
2022/01/19 00:32:30;;;;;;;0.60;0.60;;;2.40;99.90;;;;;;5011470;28;20180;-73
2022/01/19 00:34:56;;;;;;;0.60;0.50;;;2.40;99.90;;;;;;5010938;28;20438;-73
2022/01/19 00:37:22;;;;;;;0.60;0.60;;;2.40;99.90;;;;;;5011823;28;20231;-73
2022/01/19 00:39:47;;;;;;;0.60;0.50;;;2.40;99.90;;;;;;5011460;28;21122;-73
2022/01/19 00:42:13;;;;;;;0.60;0.53;;;2.40;99.90;;;;;;5011841;28;20553;-73
2022/01/19 00:44:38;;;;;;;0.60;0.50;;;2.40;99.90;;;;;;5012358;28;20196;-74
2022/01/19 00:47:05;;;;;;;0.80;0.80;;;2.40;99.90;;;;;;5011500;28;20203;-73
2022/01/19 00:49:30;;;;;;;0.60;0.60;;;2.40;99.90;;;;;;5011289;28;20305;-73
2022/01/19 00:51:56;;;;;;;0.60;0.60;;;2.40;99.90;;;;;;5012005;28;20528;-74
2022/01/19 00:54:21;;;;;;;1.33;1.07;;;2.30;99.90;;;;;;5009285;28;20192;-72
2022/01/19 00:56:47;;;;;;;0.60;0.60;;;2.40;99.90;;;;;;5009774;28;20218;-73
2022/01/19 00:59:12;;;;;;;0.60;0.50;;;2.40;99.90;;;;;;5010258;28;20180;-73
2022/01/19 01:01:38;;;;;;;0.80;0.80;;;2.40;99.90;;;;;;5011903;28;20309;-73
2022/01/19 01:04:03;;;;;;;0.60;0.50;;;2.50;99.90;;;;;;5011301;28;20204;-74
2022/01/19 01:06:30;;;;;;;0.67;0.60;;;2.50;99.90;;;;;;5011097;28;20282;-73
2022/01/19 01:08:56;;;;;;;0.60;0.60;;;2.50;99.90;;;;;;5010246;28;21103;-73
2022/01/19 01:11:28;;;;;;;0.60;0.60;;;2.50;99.90;;;;;;5011363;28;20470;-73
2022/01/19 01:16:34;;;;;;;0.60;0.60;;;2.50;99.90;;;;;;5011177;28;20474;-73
2022/01/19 01:19:02;;;;;;;0.60;0.50;;;2.50;99.90;;;;;;5011649;28;20430;-73
2022/01/19 01:21:28;;;;;;;0.60;0.50;;;2.50;99.90;;;;;;5011434;28;20768;-74
2022/01/19 01:23:53;;;;;;;0.60;0.50;;;2.50;99.90;;;;;;5011033;28;20442;-74
2022/01/19 01:26:19;;;;;;;0.60;0.50;;;2.60;99.90;;;;;;5010758;28;20568;-73
2022/01/19 01:28:44;;;;;;;0.60;0.50;;;2.70;99.90;;;;;;5011694;28;20184;-73
2022/01/19 01:31:10;;;;;;;0.60;0.60;;;2.70;99.90;;;;;;5010515;28;20241;-73
2022/01/19 01:33:37;;;;;;;0.60;0.50;;;2.80;99.90;;;;;;5011109;28;20713;-74
2022/01/19 01:36:03;;;;;;;0.60;0.60;;;2.90;99.90;;;;;;5010723;28;20234;-74
2022/01/19 01:38:28;;;;;;;0.60;0.50;;;2.90;99.90;;;;;;5011901;28;20468;-74
2022/01/19 01:40:54;;;;;;;0.87;0.87;;;3.00;99.90;;;;;;5011616;28;20438;-74
2022/01/19 01:43:20;;;;;;;0.60;0.50;;;3.10;99.90;;;;;;5008645;28;20189;-73
2022/01/19 01:45:49;;;;;;;0.60;0.60;;;3.10;99.90;;;;;;5011329;28;20268;-73
2022/01/19 01:48:17;;;;;;;0.77;0.77;;;3.20;99.90;;;;;;5010819;28;20282;-73
2022/01/19 01:53:32;;;;;;;0.70;0.70;;;3.20;99.90;;;;;;5009864;28;20447;-74
2022/01/19 01:56:08;;;;;;;1.37;0.90;;;3.30;99.90;;;;;;5010747;28;20965;-74
2022/01/19 01:58:36;;;;;;;0.60;0.60;;;3.30;99.90;;;;;;5009190;28;20427;-74
2022/01/19 02:01:03;;;;;;;0.70;0.70;;;3.40;99.90;;;;;;5010276;28;20444;-73
2022/01/19 02:03:36;;;;;;;1.67;1.53;;;3.50;99.90;;;;;;5010055;28;20855;-74
2022/01/19 02:06:20;;;;;;;0.60;0.50;;;3.50;99.90;;;;;;5010689;28;20453;-74
2022/01/19 02:09:13;;;;;;;0.90;0.80;;;3.50;99.90;;;;;;5010644;28;20830;-74
2022/01/19 02:22:58;;;;;;;0.60;0.50;;;3.70;99.90;;;;;;5010355;28;20757;-72
2022/01/19 02:25:28;;;;;;;0.67;0.67;;;3.60;99.90;;;;;;5009840;28;20988;-73
2022/01/19 02:31:13;;;;;;;0.60;0.50;;;3.60;99.90;;;;;;5009553;28;20434;-74
2022/01/19 02:41:40;;;;;;;0.60;0.60;;;3.60;99.90;;;;;;5009656;28;20445;-74
2022/01/19 02:44:09;;;;;;;0.80;0.70;;;3.60;99.90;;;;;;5010155;28;20438;-74
2022/01/19 02:49:14;;;;;;;0.60;0.50;;;3.60;99.90;;;;;;5009961;28;20431;-74
2022/01/19 02:49:24;;;;;;;0.60;0.60;;;3.70;99.90;;;;;;5009397;28;20468;-74
2022/01/19 02:51:52;;;;;;;0.80;0.80;;;3.70;99.90;;;;;;5010069;28;20506;-74
2022/01/19 02:54:22;;;;;;;1.27;1.17;;;3.70;99.90;;;;;;5008147;28;20278;-74
2022/01/19 02:56:54;;;;;;;1.53;1.53;;;3.60;99.90;;;;;;5010175;28;20467;-74
2022/01/19 03:09:43;;;;;;;2.73;1.03;;;3.40;99.90;;;;;;5009208;28;20462;-72
2022/01/19 03:12:09;;;;;;;0.97;0.80;;;3.40;99.90;;;;;;5024616;28;20415;-73
2022/01/19 03:14:36;;;;;;;0.60;0.50;;;3.30;99.90;;;;;;5008970;28;20430;-72
2022/01/19 03:17:01;;;;;;;0.60;0.50;;;3.20;99.90;;;;;;5010054;28;20461;-74
2022/01/19 03:19:29;;;;;;;2.50;0.90;;;3.30;99.90;;;;;;5009426;28;20402;-73
2022/01/19 03:21:54;;;;;;;0.63;0.63;;;3.30;99.90;;;;;;5008913;28;20177;-73
2022/01/19 03:24:20;;;;;;;0.67;0.67;;;3.20;99.90;;;;;;5009203;28;20419;-73
2022/01/19 03:26:46;;;;;;;0.60;0.60;;;3.30;99.90;;;;;;5009306;28;20188;-74
2022/01/19 03:29:11;;;;;;;3.17;2.43;;;3.30;99.90;;;;;;5009230;28;20171;-73
2022/01/19 03:31:37;;;;;;;1.30;1.20;;;3.30;99.90;;;;;;5009079;28;20520;-73
2022/01/19 03:34:03;;;;;;;0.87;0.87;;;3.30;99.90;;;;;;5008927;28;20556;-74
2022/01/19 03:36:29;;;;;;;4.00;1.00;;;3.40;99.90;;;;;;5008796;28;20211;-73
2022/01/19 03:38:55;;;;;;;0.60;0.60;;;3.40;99.90;;;;;;5008925;28;20786;-73
2022/01/19 03:41:21;;;;;;;0.60;0.60;;;3.30;99.90;;;;;;5008834;28;20190;-73
2022/01/19 03:43:46;;;;;;;0.83;0.83;;;3.30;99.90;;;;;;5008776;28;20811;-73
2022/01/19 03:46:16;;;;;;;2.10;2.00;;;3.30;99.90;;;;;;5009064;28;20761;-72
2022/01/19 03:48:56;;;;;;;0.60;0.50;;;3.30;99.90;;;;;;5008684;28;20224;-73
2022/01/19 03:51:22;;;;;;;0.60;0.57;;;3.40;99.90;;;;;;5016533;28;20426;-74
2022/01/19 03:53:49;;;;;;;1.10;1.10;;;3.40;99.90;;;;;;5026870;28;20422;-74
2022/01/19 03:56:15;;;;;;;0.60;0.50;;;3.50;99.90;;;;;;5007536;28;21013;-74
2022/01/19 03:58:41;;;;;;;0.60;0.53;;;3.50;99.90;;;;;;5008369;28;20515;-74
2022/01/19 04:01:07;;;;;;;1.03;0.93;;;3.60;99.90;;;;;;5008880;28;20490;-74
2022/01/19 04:04:08;;;;;;;0.60;0.50;;;3.70;99.90;;;;;;5008979;28;20696;-74
2022/01/19 04:09:17;;;;;;;3.33;1.97;;;3.80;99.90;;;;;;4998422;28;20437;-74
2022/01/19 04:11:43;;;;;;;0.60;0.50;;;3.90;99.90;;;;;;5008598;28;20407;-73
2022/01/19 04:16:35;;;;;;;1.40;1.37;;;4.00;99.90;;;;;;5008548;28;20205;-73
2022/01/19 04:19:21;;;;;;;0.70;0.70;;;4.10;99.90;;;;;;5020538;28;20456;-73
2022/01/19 04:21:47;;;;;;;0.60;0.57;;;4.20;99.90;;;;;;5008466;28;20399;-73
2022/01/19 04:24:13;;;;;;;0.60;0.60;;;4.30;99.90;;;;;;5008395;28;20442;-73
2022/01/19 04:26:38;;;;;;;0.60;0.57;;;4.30;99.90;;;;;;5008522;28;20426;-73
2022/01/19 04:29:04;;;;;;;0.60;0.53;;;4.30;99.90;;;;;;5008326;28;20172;-73
2022/01/19 04:31:30;;;;;;;0.87;0.87;;;4.40;99.90;;;;;;5008762;28;20186;-73
2022/01/19 04:34:00;;;;;;;0.60;0.60;;;4.40;99.90;;;;;;5011777;28;20484;-73
2022/01/19 04:36:32;;;;;;;0.60;0.60;;;4.40;99.90;;;;;;5011724;28;20290;-73
2022/01/19 04:39:21;;;;;;;0.60;0.57;;;4.50;99.90;;;;;;5011573;28;20416;-73
2022/01/19 04:44:54;;;;;;;0.60;0.50;;;4.50;99.90;;;;;;5012443;28;20426;-74
2022/01/19 05:06:36;;;;;;;1.83;1.73;;;4.60;99.90;;;;;;5002093;28;20503;-74
2022/01/19 05:09:10;;;;;;;0.60;0.60;;;4.60;99.90;;;;;;5006866;28;20465;-74
2022/01/19 05:14:20;;;;;;;0.60;0.53;;;4.70;99.90;;;;;;5007483;28;20422;-74
2022/01/19 05:16:45;;;;;;;0.67;0.60;;;4.70;99.90;;;;;;5011556;28;20840;-74
2022/01/19 05:19:11;;;;;;;3.03;1.60;;;4.70;99.90;;;;;;5011711;28;20180;-74
2022/01/19 05:21:37;;;;;;;1.40;1.33;;;4.70;99.90;;;;;;5011456;28;20586;-74
2022/01/19 05:24:04;;;;;;;0.60;0.60;;;4.60;99.90;;;;;;5011047;28;20180;-74
2022/01/19 05:26:31;;;;;;;0.80;0.80;;;4.70;99.90;;;;;;5010717;28;20192;-74
2022/01/19 05:28:57;;;;;;;1.43;1.33;;;4.60;99.90;;;;;;5011075;28;20415;-74
2022/01/19 05:31:23;;;;;;;0.87;0.87;;;4.60;99.90;;;;;;5010414;28;20912;-73
2022/01/19 05:33:49;;;;;;;0.60;0.60;;;4.60;99.90;;;;;;5010474;28;20423;-73
2022/01/19 05:36:14;;;;;;;0.60;0.60;;;4.50;99.90;;;;;;5010749;28;20455;-73
2022/01/19 05:38:40;;;;;;;0.67;0.60;;;4.60;99.90;;;;;;5011034;28;20172;-73
2022/01/19 05:41:06;;;;;;;0.60;0.50;;;4.50;99.90;;;;;;5010325;28;20175;-73
2022/01/19 05:43:31;;;;;;;0.60;0.50;;;4.50;99.90;;;;;;5010164;28;20173;-74
2022/01/19 05:45:57;;;;;;;0.60;0.60;;;4.50;99.90;;;;;;5008844;28;20229;-73
2022/01/19 05:48:24;;;;;;;0.60;0.50;;;4.50;99.90;;;;;;5010492;28;20176;-73
2022/01/19 05:50:49;;;;;;;0.63;0.63;;;4.50;99.90;;;;;;5010436;28;20168;-73
2022/01/19 05:53:16;;;;;;;1.13;1.13;;;4.50;99.90;;;;;;5009085;28;21041;-73
2022/01/19 05:55:42;;;;;;;0.60;0.60;;;4.50;99.90;;;;;;5025870;28;20255;-73
2022/01/19 05:58:08;;;;;;;0.60;0.50;;;4.60;99.90;;;;;;5010437;28;20466;-73
2022/01/19 06:00:33;;;;;;;0.60;0.50;;;4.50;99.90;;;;;;5009770;28;20501;-73
2022/01/19 06:02:59;;;;;;;0.87;0.87;;;4.50;99.90;;;;;;5010226;28;20214;-73
2022/01/19 06:05:24;;;;;;;0.60;0.60;;;4.50;99.90;;;;;;5010554;28;20210;-73
2022/01/19 06:07:59;;;;;;;0.60;0.60;;;4.60;99.90;;;;;;5010659;28;20192;-73
2022/01/19 06:10:43;;;;;;;0.60;0.50;;;4.50;99.90;;;;;;5009958;28;20259;-73
2022/01/19 06:13:13;;;;;;;0.60;0.60;;;4.50;99.90;;;;;;5010331;28;20547;-73
2022/01/19 06:15:38;;;;;;;0.80;0.70;;;4.40;99.90;;;;;;5010042;28;20427;-73
2022/01/19 06:18:04;;;;;;;0.60;0.60;;;4.30;99.90;;;;;;5009979;28;20539;-73
2022/01/19 06:20:29;;;;;;;0.70;0.70;;;4.40;99.90;;;;;;5009819;28;20188;-73
2022/01/19 06:22:55;;;;;;;0.63;0.60;;;4.40;99.90;;;;;;5010206;28;20196;-73
2022/01/19 06:25:21;;;;;;;0.60;0.50;;;4.40;99.90;;;;;;5010181;28;20176;-73
2022/01/19 06:27:47;;;;;;;0.60;0.60;;;4.40;99.90;;;;;;5009920;28;20207;-73
2022/01/19 06:30:13;;;;;;;0.60;0.60;;;4.40;99.90;;;;;;5009646;28;20181;-73
2022/01/19 06:32:39;;;;;;;0.60;0.60;;;4.50;99.90;;;;;;5010082;28;20172;-73
2022/01/19 06:35:07;;;;;;;0.60;0.50;;;4.50;99.90;;;;;;5010542;28;20427;-74
2022/01/19 06:37:33;;;;;;;0.60;0.60;;;4.50;99.90;;;;;;5010812;28;20477;-74
2022/01/19 06:39:58;;;;;;;0.70;0.60;;;4.50;99.90;;;;;;5011069;28;20427;-74
2022/01/19 06:42:24;;;;;;;0.87;0.87;;;4.60;99.90;;;;;;5010918;28;20693;-74
2022/01/19 06:44:50;;;;;;;0.60;0.50;;;4.60;99.90;;;;;;5011038;28;20168;-73
2022/01/19 06:47:15;;;;;;;1.93;1.83;;;4.60;99.90;;;;;;5009784;28;20204;-73
2022/01/19 06:49:41;;;;;;;0.60;0.60;;;4.60;99.90;;;;;;5009381;28;20173;-74
2022/01/19 06:52:07;;;;;;;0.60;0.53;;;4.70;99.90;;;;;;5009517;28;20233;-73
2022/01/19 06:54:32;;;;;;;0.60;0.50;;;4.60;99.90;;;;;;5008614;28;20205;-73
2022/01/19 06:56:58;;;;;;;0.60;0.60;;;4.50;99.90;;;;;;5009262;28;20218;-73
2022/01/19 06:59:23;;;;;;;0.80;0.80;;;4.60;99.90;;;;;;5008438;28;20177;-73
2022/01/19 07:01:49;;;;;;;0.70;0.67;;;4.60;99.90;;;;;;5009186;28;20184;-73
2022/01/19 07:04:16;;;;;;;0.70;0.70;;;4.70;99.90;;;;;;5009109;28;20255;-73
2022/01/19 07:06:42;;;;;;;0.87;0.87;;;4.70;99.90;;;;;;5009486;28;20295;-72
2022/01/19 07:09:08;;;;;;;1.03;1.00;;;4.60;99.90;;;;;;5023910;28;20510;-72
2022/01/19 07:11:36;;;;;;;0.70;0.70;;;4.60;99.90;;;;;;5024386;28;20801;-72
2022/01/19 07:14:02;;;;;;;0.60;0.60;;;4.70;99.90;;;;;;5029181;28;20497;-72
2022/01/19 07:16:27;;;;;;;1.20;1.10;;;4.60;99.90;;;;;;5029129;28;20465;-73
2022/01/19 07:18:53;;;;;;;0.60;0.60;;;4.70;99.90;;;;;;5029101;28;20410;-73
2022/01/19 07:21:18;;;;;;;0.90;0.70;;;4.80;99.90;;;;;;5014920;28;20176;-73
2022/01/19 07:23:44;;;;;;;0.63;0.60;;;4.80;99.90;;;;;;5009038;28;20625;-73
2022/01/19 07:26:09;;;;;;;0.70;0.70;;;4.80;99.90;;;;;;5009246;28;20172;-73
2022/01/19 07:28:35;;;;;;;0.70;0.70;;;4.90;99.90;;;;;;5009187;28;20630;-73
2022/01/19 07:31:01;;;;;;;0.87;0.83;;;4.90;99.90;;;;;;5008733;28;20180;-73
2022/01/19 07:33:26;;;;;;;0.67;0.50;;;5.00;99.90;;;;;;5009146;28;20173;-73
2022/01/19 07:35:52;;;;;;;0.70;0.70;;;5.00;99.90;;;;;;5009303;28;20196;-73
2022/01/19 07:38:23;;;;;;;1.33;1.23;;;5.00;99.90;;;;;;5008674;28;20341;-72
2022/01/19 07:40:49;;;;;;;0.63;0.57;;;5.00;99.90;;;;;;5008604;28;20259;-73
2022/01/19 07:43:14;;;;;;;1.57;1.47;;;5.10;99.90;;;;;;5011133;28;20447;-74
2022/01/19 07:45:40;;;;;;;0.70;0.70;;;5.10;99.90;;;;;;5010052;28;20457;-73
2022/01/19 07:48:06;;;;;;;1.30;1.20;;;5.10;99.90;;;;;;5008447;28;20601;-72
2022/01/19 07:50:32;;;;;;;0.70;0.70;;;5.10;99.90;;;;;;5008111;28;20630;-72
2022/01/19 07:52:58;;;;;;;0.60;0.50;;;5.10;99.90;;;;;;5008792;28;20202;-72
2022/01/19 07:55:24;;;;;;;0.60;0.60;;;5.10;99.90;;;;;;5008682;28;20457;-72
2022/01/19 07:57:51;;;;;;;0.70;0.70;;;5.10;99.90;;;;;;5008677;28;20470;-72
2022/01/19 08:00:23;;;;;;;0.67;0.53;;;5.10;99.90;;;;;;5008592;28;20196;-73
2022/01/19 08:02:51;;;;;;;0.60;0.53;;;5.10;99.90;;;;;;5010141;28;20426;-74
2022/01/19 08:05:17;;;;;;;0.70;0.70;;;5.10;99.90;;;;;;5012014;28;20490;-74
2022/01/19 08:07:43;;;;;;;2.53;2.40;;;5.10;99.90;;;;;;5014775;28;20462;-74
2022/01/19 08:10:10;;;;;;;0.70;0.70;;;5.10;99.90;;;;;;5014876;28;20429;-74
2022/01/19 08:12:35;;;;;;;1.07;1.07;;;5.10;99.90;;;;;;5015819;28;20407;-74
2022/01/19 08:15:03;;;;;;;7.63;1.67;;;5.10;99.90;;;;;;5015543;28;20443;-73
2022/01/19 08:17:29;;;;;;;1.13;1.13;;;5.10;99.90;;;;;;5012632;28;20211;-73
2022/01/19 08:19:56;;;;;;;0.67;0.60;;;5.10;99.90;;;;;;5011664;28;20786;-72
2022/01/19 08:22:21;;;;;;;0.67;0.50;;;5.10;99.90;;;;;;5010724;28;20180;-73
2022/01/19 08:24:47;;;;;;;3.07;2.87;;;5.20;99.90;;;;;;5012374;28;20408;-73
2022/01/19 08:27:13;;;;;;;0.80;0.80;;;5.20;99.90;;;;;;5011923;28;20218;-73
2022/01/19 08:29:46;;;;;;;0.60;0.60;;;5.30;99.90;;;;;;5027180;28;20234;-73
2022/01/19 08:32:11;;;;;;;1.97;1.57;;;5.20;99.90;;;;;;5011404;28;20184;-73
2022/01/19 08:34:37;;;;;;;1.97;1.87;;;5.20;99.90;;;;;;5011220;28;20472;-72
2022/01/19 08:37:03;;;;;;;0.67;0.60;;;5.20;99.90;;;;;;5011483;28;20208;-72
2022/01/19 08:39:28;;;;;;;1.10;0.93;;;5.20;99.90;;;;;;5011751;28;20165;-72
2022/01/19 08:41:54;;;;;;;0.90;0.90;;;5.20;99.90;;;;;;5011499;28;20183;-72
2022/01/19 08:44:21;;;;;;;0.63;0.60;;;5.20;99.90;;;;;;5011675;28;20164;-73
2022/01/19 08:46:48;;;;;;;1.30;1.20;;;5.30;99.90;;;;;;5011613;28;20445;-73
2022/01/19 08:49:14;;;;;;;1.10;1.00;;;5.30;99.90;;;;;;5011529;28;20502;-73
2022/01/19 08:51:40;;;;;;;1.23;1.13;;;5.30;99.90;;;;;;5010894;28;20791;-73
2022/01/19 08:54:05;;;;;;;0.70;0.70;;;5.40;99.90;;;;;;5011496;28;20493;-73
2022/01/19 08:56:32;;;;;;;0.67;0.60;;;5.30;99.90;;;;;;5011214;28;20229;-73
2022/01/19 08:58:58;;;;;;;0.67;0.63;;;5.20;99.90;;;;;;5013118;28;20172;-74
2022/01/19 09:01:24;;;;;;;0.73;0.73;;;5.30;99.90;;;;;;5012639;28;20430;-73
2022/01/19 09:03:50;;;;;;;1.27;1.17;;;5.50;99.90;;;;;;5013107;28;20419;-73
2022/01/19 09:06:15;;;;;;;1.57;1.27;;;5.50;99.90;;;;;;5013315;28;20435;-73
2022/01/19 09:08:41;;;;;;;0.70;0.60;;;5.50;99.90;;;;;;5011563;28;20183;-73
2022/01/19 09:11:08;;;;;;;0.70;0.60;;;5.60;99.90;;;;;;5011936;28;20172;-72
2022/01/19 09:13:34;;;;;;;0.70;0.67;;;5.60;99.90;;;;;;5011303;28;20207;-72
2022/01/19 09:15:59;;;;;;;1.83;1.20;;;5.60;99.90;;;;;;5011060;28;20415;-72
2022/01/19 09:18:25;;;;;;;2.20;1.63;;;5.60;99.90;;;;;;5009999;28;20449;-72
2022/01/19 09:20:51;;;;;;;0.67;0.60;;;5.70;99.90;;;;;;5010889;28;20176;-72
2022/01/19 09:23:17;;;;;;;0.67;0.60;;;5.60;99.90;;;;;;5010497;28;20581;-72
2022/01/19 09:25:42;;;;;;;2.00;1.90;;;5.70;99.90;;;;;;5010913;28;20173;-73
2022/01/19 09:28:08;;;;;;;1.00;1.00;;;5.60;99.90;;;;;;5010724;28;20526;-73
2022/01/19 09:30:36;;;;;;;1.00;0.97;;;5.60;99.90;;;;;;5011593;28;20204;-74
2022/01/19 09:33:19;;;;;;;1.00;1.00;;;5.60;99.90;;;;;;5014750;28;20439;-73
2022/01/19 09:36:05;;;;;;;0.67;0.50;;;5.60;99.90;;;;;;5011664;28;20436;-73
2022/01/19 09:38:36;;;;;;;0.97;0.97;;;5.60;99.90;;;;;;5010722;28;20415;-73
2022/01/19 09:41:03;;;;;;;0.70;0.70;;;5.80;99.90;;;;;;5010364;28;20415;-72
2022/01/19 09:43:29;;;;;;;0.73;0.73;;;6.10;99.90;;;;;;5010718;28;20404;-72
2022/01/19 09:45:59;;;;;;;0.60;0.53;;;6.30;99.90;;;;;;5010727;28;20433;-73
2022/01/19 09:48:27;;;;;;;2.07;1.70;;;6.40;99.90;;;;;;5009979;28;20177;-73
2022/01/19 09:50:54;;;;;;;1.20;1.10;;;6.50;99.90;;;;;;5009148;28;20468;-73
2022/01/19 09:53:20;;;;;;;1.20;1.20;;;6.60;99.90;;;;;;5011196;28;20915;-73
2022/01/19 09:55:47;;;;;;;0.80;0.80;;;6.70;99.90;;;;;;5010644;28;20445;-73
2022/01/19 09:58:13;;;;;;;0.70;0.60;;;6.70;99.90;;;;;;5008963;28;20466;-72
2022/01/19 10:00:39;;;;;;;0.70;0.60;;;6.90;99.90;;;;;;5010333;28;20395;-73
2022/01/19 10:03:21;;;;;;;0.70;0.60;;;6.80;99.90;;;;;;5010283;28;20423;-73
2022/01/19 10:06:02;;;;;;;1.20;1.10;;;6.70;99.90;;;;;;5009928;28;20196;-72
2022/01/19 10:08:39;;;;;;;0.63;0.57;;;6.80;99.90;;;;;;5011372;28;20396;-74
2022/01/19 10:16:59;;;;;;;0.67;0.60;;;7.00;99.90;;;;;;5011766;28;20819;-74
2022/01/19 10:19:30;;;;;;;1.57;1.00;;;6.90;99.90;;;;;;5010706;28;20430;-73
2022/01/19 10:22:05;;;;;;;0.73;0.73;;;7.10;99.90;;;;;;5009968;28;20495;-73
2022/01/19 10:24:47;;;;;;;3.37;1.23;;;7.10;99.90;;;;;;5010217;28;20476;-74
2022/01/19 10:27:20;;;;;;;0.80;0.80;;;6.90;99.90;;;;;;5009936;28;20504;-74
2022/01/19 10:29:46;;;;;;;0.87;0.87;;;6.50;99.90;;;;;;5011296;28;20403;-74
2022/01/19 10:32:12;;;;;;;1.03;1.03;;;6.40;99.90;;;;;;5010705;28;20462;-74
2022/01/19 10:34:38;;;;;;;0.70;0.70;;;6.20;99.90;;;;;;5009515;28;20423;-74
2022/01/19 10:37:05;;;;;;;1.57;1.27;;;6.30;99.90;;;;;;5010740;28;20978;-74
2022/01/19 10:39:46;;;;;;;0.67;0.60;;;6.40;99.90;;;;;;5010707;28;20186;-73
2022/01/19 10:42:17;;;;;;;0.70;0.60;;;6.60;99.90;;;;;;4990961;28;20503;-73
2022/01/19 10:44:58;;;;;;;0.67;0.60;;;6.40;99.90;;;;;;5009636;28;20411;-72
2022/01/19 10:47:40;;;;;;;0.70;0.70;;;6.20;99.90;;;;;;5009750;28;20431;-73
2022/01/19 10:50:08;;;;;;;0.80;0.80;;;6.30;99.90;;;;;;5009640;28;20469;-74
2022/01/19 10:52:41;;;;;;;0.93;0.93;;;6.10;99.90;;;;;;5010288;28;20468;-74
2022/01/19 10:55:13;;;;;;;0.67;0.60;;;6.00;99.90;;;;;;5009634;28;20496;-74
2022/01/19 10:57:41;;;;;;;0.70;0.63;;;5.80;99.90;;;;;;5010961;28;20467;-74
2022/01/19 11:00:17;;;;;;;6.73;1.33;;;5.80;99.90;;;;;;5011127;28;20458;-74
2022/01/19 11:02:43;;;;;;;0.80;0.80;;;5.70;99.90;;;;;;5011209;28;20469;-74
2022/01/19 11:05:09;;;;;;;0.70;0.70;;;5.60;99.90;;;;;;5009840;28;20795;-73
2022/01/19 11:07:36;;;;;;;1.10;1.00;;;5.50;99.90;;;;;;5008193;28;20847;-72
2022/01/19 11:10:17;;;;;;;1.30;1.20;;;5.50;99.90;;;;;;5009505;28;20411;-72
2022/01/19 11:12:48;;;;;;;2.03;1.93;;;5.40;99.90;;;;;;5009003;28;20946;-73
2022/01/19 11:15:18;;;;;;;0.70;0.70;;;5.40;99.90;;;;;;5008968;28;20441;-73
2022/01/19 11:17:44;;;;;;;0.67;0.60;;;5.40;99.90;;;;;;5008164;28;20471;-73
2022/01/19 11:20:13;;;;;;;1.03;0.93;;;5.40;99.90;;;;;;5009287;28;20854;-74
2022/01/19 11:23:16;;;;;;;1.53;1.43;;;5.40;99.90;;;;;;5008875;28;20950;-73
2022/01/19 11:26:01;;;;;;;2.03;1.93;;;5.60;99.90;;;;;;5009047;28;20446;-73
2022/01/19 11:28:34;;;;;;;0.67;0.60;;;5.60;99.90;;;;;;5007958;28;20422;-73
2022/01/19 11:31:04;;;;;;;0.87;0.87;;;5.60;99.90;;;;;;5008818;28;20418;-73
2022/01/19 11:33:30;;;;;;;1.80;1.60;;;5.70;99.90;;;;;;5009056;28;20448;-73
2022/01/19 11:36:02;;;;;;;0.70;0.70;;;5.70;99.90;;;;;;5008769;28;20468;-73
2022/01/19 11:38:40;;;;;;;0.63;0.60;;;5.60;99.90;;;;;;5008271;28;20835;-73
2022/01/19 11:41:09;;;;;;;0.97;0.97;;;5.60;99.90;;;;;;5024658;28;20426;-72
2022/01/19 11:43:37;;;;;;;0.70;0.60;;;5.50;99.90;;;;;;5012665;28;20403;-73
2022/01/19 11:46:04;;;;;;;9.30;2.53;;;5.50;99.90;;;;;;5092021;28;20930;-73
2022/01/19 11:48:35;;;;;;;0.70;0.70;;;5.50;99.90;;;;;;5008603;28;20496;-73
2022/01/19 11:51:24;;;;;;;0.70;0.70;;;5.50;99.90;;;;;;5012365;28;20399;-72
2022/01/19 11:54:21;;;;;;;1.13;1.13;;;5.60;99.90;;;;;;5013606;28;20423;-72
2022/01/19 11:56:58;;;;;;;1.17;1.07;;;5.50;99.90;;;;;;5011664;28;20489;-72
2022/01/19 11:59:45;;;;;;;0.67;0.60;;;5.50;99.90;;;;;;5012450;28;20418;-73
2022/01/19 12:02:28;;;;;;;2.87;2.67;;;5.40;99.90;;;;;;5012133;28;20741;-72
2022/01/19 12:05:00;;;;;;;2.60;2.30;;;5.40;99.90;;;;;;5012069;28;20560;-71
2022/01/19 12:07:43;;;;;;;0.70;0.60;;;5.40;99.90;;;;;;5012217;28;20934;-72
2022/01/19 12:10:30;;;;;;;0.70;0.60;;;5.40;99.90;;;;;;5011950;28;20422;-73
2022/01/19 12:13:29;;;;;;;0.90;0.77;;;5.40;99.90;;;;;;5012044;28;20800;-73
2022/01/19 12:16:04;;;;;;;0.70;0.70;;;5.50;99.90;;;;;;5011558;28;20419;-73
2022/01/19 12:18:36;;;;;;;2.10;1.33;;;5.50;99.90;;;;;;5012132;28;20407;-73
2022/01/19 12:21:02;;;;;;;0.67;0.50;;;5.60;99.90;;;;;;5010512;28;20838;-72
2022/01/19 12:23:30;;;;;;;1.70;1.60;;;5.50;99.90;;;;;;5012027;28;20391;-72
2022/01/19 12:25:57;;;;;;;0.67;0.57;;;5.50;99.90;;;;;;5010784;28;20174;-72
2022/01/19 12:28:43;;;;;;;0.83;0.83;;;5.50;99.90;;;;;;5011940;28;20448;-72
2022/01/19 12:31:31;;;;;;;1.10;1.10;;;5.40;99.90;;;;;;5011691;28;20441;-72
2022/01/19 12:34:06;;;;;;;0.70;0.70;;;5.50;99.90;;;;;;5011660;28;20462;-73
2022/01/19 12:36:48;;;;;;;1.57;1.47;;;5.60;99.90;;;;;;5011720;28;20489;-73
2022/01/19 12:39:26;;;;;;;0.70;0.70;;;5.60;99.90;;;;;;5011721;28;20403;-73
2022/01/19 12:42:12;;;;;;;1.17;1.10;;;5.50;99.90;;;;;;5011632;28;20405;-72
2022/01/19 12:44:39;;;;;;;0.83;0.77;;;5.50;99.90;;;;;;5011172;28;20442;-72
2022/01/19 12:47:24;;;;;;;0.80;0.80;;;5.50;99.90;;;;;;5011632;28;20837;-73
2022/01/19 12:49:51;;;;;;;2.63;1.70;;;5.50;99.90;;;;;;5011698;28;20399;-73
2022/01/19 12:52:17;;;;;;;1.00;1.00;;;5.50;99.90;;;;;;5010155;28;20407;-73
2022/01/19 12:54:43;;;;;;;0.60;0.60;;;5.50;99.90;;;;;;5010936;28;20499;-73
2022/01/19 12:57:15;;;;;;;3.23;2.93;;;5.50;99.90;;;;;;5011372;28;20459;-73
2022/01/19 12:59:45;;;;;;;1.97;1.87;;;5.60;99.90;;;;;;5011565;28;20160;-72
2022/01/19 13:02:13;;;;;;;0.93;0.93;;;5.60;99.90;;;;;;5010902;28;20416;-72
2022/01/19 13:04:41;;;;;;;2.20;2.07;;;5.70;99.90;;;;;;5011182;28;20471;-72
2022/01/19 13:07:26;;;;;;;2.13;1.93;;;5.60;99.90;;;;;;5011289;28;20438;-73
2022/01/19 13:10:13;;;;;;;0.70;0.63;;;5.60;99.90;;;;;;5011000;28;20423;-72
2022/01/19 13:12:49;;;;;;;1.63;1.53;;;5.60;99.90;;;;;;5010914;28;20427;-72
2022/01/19 13:15:16;;;;;;;1.33;1.23;;;5.50;99.90;;;;;;5009988;28;20434;-73
2022/01/19 13:17:44;;;;;;;1.53;0.97;;;5.50;99.90;;;;;;5011097;28;20550;-73
2022/01/19 13:20:12;;;;;;;1.30;0.93;;;5.50;99.90;;;;;;5010866;28;20426;-72
2022/01/19 13:22:50;;;;;;;0.67;0.53;;;5.50;99.90;;;;;;5010725;28;20434;-72
2022/01/19 13:25:27;;;;;;;0.90;0.70;;;5.60;99.90;;;;;;5010372;28;20494;-72
2022/01/19 13:27:55;;;;;;;0.90;0.90;;;5.60;99.90;;;;;;5010889;28;20454;-72
2022/01/19 13:30:23;;;;;;;1.03;0.97;;;5.60;99.90;;;;;;5010196;28;20431;-73
2022/01/19 13:32:49;;;;;;;0.87;0.87;;;5.60;99.90;;;;;;5010769;28;20470;-72
2022/01/19 13:35:16;;;;;;;0.70;0.70;;;5.70;99.90;;;;;;5010911;28;20439;-72
2022/01/19 13:37:45;;;;;;;4.00;1.37;;;5.70;99.90;;;;;;5010806;28;20516;-72
2022/01/19 13:40:12;;;;;;;0.73;0.73;;;5.70;99.90;;;;;;5011861;28;20461;-73
2022/01/19 13:42:51;;;;;;;0.67;0.50;;;5.50;99.90;;;;;;5028649;28;20426;-72
2022/01/19 13:45:25;;;;;;;1.30;1.20;;;5.50;99.90;;;;;;5023613;28;20434;-72
2022/01/19 13:50:31;;;;;;;0.80;0.80;;;5.40;99.90;;;;;;5010716;28;20934;-72
2022/01/19 13:52:58;;;;;;;1.17;0.90;;;5.40;99.90;;;;;;5009940;28;20420;-72
2022/01/19 13:55:24;;;;;;;1.50;1.40;;;5.30;99.90;;;;;;5010561;28;20838;-72
2022/01/19 13:57:50;;;;;;;1.83;1.07;;;5.10;99.90;;;;;;5010108;28;20467;-73
2022/01/19 14:00:18;;;;;;;2.10;1.90;;;5.10;99.90;;;;;;5010373;28;20502;-72
2022/01/19 14:02:59;;;;;;;6.33;1.90;;;5.10;99.90;;;;;;5010036;28;20180;-72
2022/01/19 14:05:46;;;;;;;0.80;0.80;;;5.20;99.90;;;;;;5009831;28;20422;-72
2022/01/19 14:08:12;;;;;;;2.00;1.90;;;5.30;99.90;;;;;;5010325;28;20538;-72
2022/01/19 14:10:43;;;;;;;1.20;0.90;;;5.20;99.90;;;;;;5009148;28;20480;-73
2022/01/19 14:13:34;;;;;;;1.43;1.33;;;5.30;99.90;;;;;;5010165;28;20445;-72
2022/01/19 14:16:26;;;;;;;0.70;0.60;;;5.30;99.90;;;;;;5009863;28;20427;-72
2022/01/19 14:19:09;;;;;;;0.60;0.50;;;5.30;99.90;;;;;;5007976;28;20870;-72
2022/01/19 14:21:51;;;;;;;1.20;1.10;;;5.20;99.90;;;;;;5000213;28;20442;-72
2022/01/19 14:24:16;;;;;;;0.70;0.63;;;5.10;99.90;;;;;;5009397;28;20434;-72
2022/01/19 14:26:59;;;;;;;0.67;0.60;;;5.30;99.90;;;;;;5013250;28;20439;-72